sensor_id;sensor_type;location;lat;lon;timestamp;P1;durP1;ratioP1;P2;durP2;ratioP2
64881;SDS011;51375;44.836;38.672;2023-12-20T00:01:35;5.30;;;3.50;;
64881;SDS011;51375;44.836;38.672;2023-12-20T00:04:02;7.88;;;4.00;;
64881;SDS011;51375;44.836;38.672;2023-12-20T00:06:28;3.85;;;2.30;;
64881;SDS011;51375;44.836;38.672;2023-12-20T00:08:54;6.68;;;3.75;;
64881;SDS011;51375;44.836;38.672;2023-12-20T00:11:20;5.10;;;3.47;;
64881;SDS011;51375;44.836;38.672;2023-12-20T00:13:46;6.88;;;3.88;;
64881;SDS011;51375;44.836;38.672;2023-12-20T00:16:11;7.18;;;3.75;;
64881;SDS011;51375;44.836;38.672;2023-12-20T00:18:37;4.97;;;3.38;;
64881;SDS011;51375;44.836;38.672;2023-12-20T00:21:03;6.40;;;3.50;;
64881;SDS011;51375;44.836;38.672;2023-12-20T00:23:29;6.20;;;3.42;;
64881;SDS011;51375;44.836;38.672;2023-12-20T00:25:55;5.00;;;2.83;;
64881;SDS011;51375;44.836;38.672;2023-12-20T00:28:21;4.20;;;3.00;;
64881;SDS011;51375;44.836;38.672;2023-12-20T00:30:48;6.70;;;3.17;;
64881;SDS011;51375;44.836;38.672;2023-12-20T00:33:14;5.93;;;3.50;;
64881;SDS011;51375;44.836;38.672;2023-12-20T00:35:39;5.57;;;3.30;;
64881;SDS011;51375;44.836;38.672;2023-12-20T00:38:05;6.93;;;2.90;;
64881;SDS011;51375;44.836;38.672;2023-12-20T00:40:32;6.18;;;2.90;;
64881;SDS011;51375;44.836;38.672;2023-12-20T00:42:58;7.43;;;3.25;;
64881;SDS011;51375;44.836;38.672;2023-12-20T00:45:24;4.55;;;2.83;;
64881;SDS011;51375;44.836;38.672;2023-12-20T00:47:51;4.15;;;2.80;;
64881;SDS011;51375;44.836;38.672;2023-12-20T00:50:17;5.10;;;2.97;;
64881;SDS011;51375;44.836;38.672;2023-12-20T00:52:43;4.63;;;2.75;;
64881;SDS011;51375;44.836;38.672;2023-12-20T00:55:10;5.70;;;3.00;;
64881;SDS011;51375;44.836;38.672;2023-12-20T00:57:36;3.47;;;2.72;;
64881;SDS011;51375;44.836;38.672;2023-12-20T01:00:02;4.05;;;2.40;;
64881;SDS011;51375;44.836;38.672;2023-12-20T01:02:28;3.65;;;2.50;;
64881;SDS011;51375;44.836;38.672;2023-12-20T01:04:54;6.40;;;3.05;;
64881;SDS011;51375;44.836;38.672;2023-12-20T01:07:20;3.55;;;2.42;;
64881;SDS011;51375;44.836;38.672;2023-12-20T01:09:46;2.67;;;2.00;;
64881;SDS011;51375;44.836;38.672;2023-12-20T01:12:12;4.90;;;2.40;;
64881;SDS011;51375;44.836;38.672;2023-12-20T01:14:38;3.58;;;2.72;;
64881;SDS011;51375;44.836;38.672;2023-12-20T01:17:04;3.05;;;2.22;;
64881;SDS011;51375;44.836;38.672;2023-12-20T01:19:30;3.03;;;2.22;;
64881;SDS011;51375;44.836;38.672;2023-12-20T01:21:57;5.20;;;2.45;;
64881;SDS011;51375;44.836;38.672;2023-12-20T01:24:22;5.63;;;2.35;;
64881;SDS011;51375;44.836;38.672;2023-12-20T01:26:48;3.00;;;2.22;;
64881;SDS011;51375;44.836;38.672;2023-12-20T01:29:14;2.67;;;2.38;;
64881;SDS011;51375;44.836;38.672;2023-12-20T01:31:41;2.85;;;2.30;;
64881;SDS011;51375;44.836;38.672;2023-12-20T01:34:07;4.88;;;2.20;;
64881;SDS011;51375;44.836;38.672;2023-12-20T01:36:33;3.58;;;2.33;;
64881;SDS011;51375;44.836;38.672;2023-12-20T01:38:59;4.18;;;2.40;;
64881;SDS011;51375;44.836;38.672;2023-12-20T01:41:24;2.25;;;1.92;;
64881;SDS011;51375;44.836;38.672;2023-12-20T01:43:50;5.13;;;2.00;;
64881;SDS011;51375;44.836;38.672;2023-12-20T01:46:18;5.43;;;2.88;;
64881;SDS011;51375;44.836;38.672;2023-12-20T01:48:45;2.80;;;2.08;;
64881;SDS011;51375;44.836;38.672;2023-12-20T01:51:11;4.95;;;2.35;;
64881;SDS011;51375;44.836;38.672;2023-12-20T01:53:37;2.67;;;2.15;;
64881;SDS011;51375;44.836;38.672;2023-12-20T01:56:04;3.45;;;2.08;;
64881;SDS011;51375;44.836;38.672;2023-12-20T01:58:30;3.53;;;2.20;;
64881;SDS011;51375;44.836;38.672;2023-12-20T02:00:56;2.78;;;2.33;;
64881;SDS011;51375;44.836;38.672;2023-12-20T02:03:23;3.53;;;2.53;;
64881;SDS011;51375;44.836;38.672;2023-12-20T02:05:50;3.38;;;2.50;;
64881;SDS011;51375;44.836;38.672;2023-12-20T02:08:16;3.45;;;2.13;;
64881;SDS011;51375;44.836;38.672;2023-12-20T02:10:41;2.83;;;2.20;;
64881;SDS011;51375;44.836;38.672;2023-12-20T02:13:08;2.85;;;2.42;;
64881;SDS011;51375;44.836;38.672;2023-12-20T02:15:34;2.63;;;2.03;;
64881;SDS011;51375;44.836;38.672;2023-12-20T02:18:02;5.90;;;2.70;;
64881;SDS011;51375;44.836;38.672;2023-12-20T02:20:28;3.22;;;2.28;;
64881;SDS011;51375;44.836;38.672;2023-12-20T02:22:54;2.83;;;2.30;;
64881;SDS011;51375;44.836;38.672;2023-12-20T02:25:20;2.88;;;2.05;;
64881;SDS011;51375;44.836;38.672;2023-12-20T02:27:47;2.22;;;1.90;;
64881;SDS011;51375;44.836;38.672;2023-12-20T02:30:14;3.20;;;2.25;;
64881;SDS011;51375;44.836;38.672;2023-12-20T02:32:40;3.58;;;2.13;;
64881;SDS011;51375;44.836;38.672;2023-12-20T02:35:06;6.13;;;2.40;;
64881;SDS011;51375;44.836;38.672;2023-12-20T02:37:32;5.22;;;2.63;;
64881;SDS011;51375;44.836;38.672;2023-12-20T02:39:59;3.42;;;2.85;;
64881;SDS011;51375;44.836;38.672;2023-12-20T02:42:24;8.30;;;2.30;;
64881;SDS011;51375;44.836;38.672;2023-12-20T02:44:50;4.07;;;2.38;;
64881;SDS011;51375;44.836;38.672;2023-12-20T02:47:16;3.65;;;2.33;;
64881;SDS011;51375;44.836;38.672;2023-12-20T02:49:42;3.90;;;2.38;;
64881;SDS011;51375;44.836;38.672;2023-12-20T02:52:08;7.95;;;3.40;;
64881;SDS011;51375;44.836;38.672;2023-12-20T02:54:34;6.18;;;3.00;;
64881;SDS011;51375;44.836;38.672;2023-12-20T02:57:00;6.88;;;2.28;;
64881;SDS011;51375;44.836;38.672;2023-12-20T02:59:26;13.43;;;3.15;;
64881;SDS011;51375;44.836;38.672;2023-12-20T03:01:53;4.78;;;3.10;;
64881;SDS011;51375;44.836;38.672;2023-12-20T03:04:18;6.50;;;2.88;;
64881;SDS011;51375;44.836;38.672;2023-12-20T03:06:44;20.60;;;2.70;;
64881;SDS011;51375;44.836;38.672;2023-12-20T03:09:10;5.38;;;2.60;;
64881;SDS011;51375;44.836;38.672;2023-12-20T03:11:36;6.28;;;2.80;;
64881;SDS011;51375;44.836;38.672;2023-12-20T03:14:02;3.03;;;2.20;;
64881;SDS011;51375;44.836;38.672;2023-12-20T03:16:28;7.38;;;2.22;;
64881;SDS011;51375;44.836;38.672;2023-12-20T03:18:54;13.40;;;3.10;;
64881;SDS011;51375;44.836;38.672;2023-12-20T03:21:20;3.60;;;2.67;;
64881;SDS011;51375;44.836;38.672;2023-12-20T03:23:46;5.43;;;2.72;;
64881;SDS011;51375;44.836;38.672;2023-12-20T03:26:11;5.07;;;2.97;;
64881;SDS011;51375;44.836;38.672;2023-12-20T03:28:37;7.90;;;2.85;;
64881;SDS011;51375;44.836;38.672;2023-12-20T03:31:03;5.25;;;2.75;;
64881;SDS011;51375;44.836;38.672;2023-12-20T03:33:29;4.05;;;2.58;;
64881;SDS011;51375;44.836;38.672;2023-12-20T03:35:55;5.15;;;2.70;;
64881;SDS011;51375;44.836;38.672;2023-12-20T03:38:21;5.35;;;2.60;;
64881;SDS011;51375;44.836;38.672;2023-12-20T03:40:49;9.50;;;2.47;;
64881;SDS011;51375;44.836;38.672;2023-12-20T03:43:15;5.47;;;2.17;;
64881;SDS011;51375;44.836;38.672;2023-12-20T03:45:42;5.72;;;2.63;;
64881;SDS011;51375;44.836;38.672;2023-12-20T03:48:08;6.88;;;2.97;;
64881;SDS011;51375;44.836;38.672;2023-12-20T03:50:34;6.45;;;3.38;;
64881;SDS011;51375;44.836;38.672;2023-12-20T03:53:00;4.28;;;2.50;;
64881;SDS011;51375;44.836;38.672;2023-12-20T03:55:26;4.22;;;2.72;;
64881;SDS011;51375;44.836;38.672;2023-12-20T03:57:52;7.20;;;2.78;;
64881;SDS011;51375;44.836;38.672;2023-12-20T04:00:18;6.20;;;2.50;;
64881;SDS011;51375;44.836;38.672;2023-12-20T04:02:44;3.50;;;2.13;;
64881;SDS011;51375;44.836;38.672;2023-12-20T04:05:12;4.40;;;2.30;;
64881;SDS011;51375;44.836;38.672;2023-12-20T04:07:40;5.55;;;2.70;;
64881;SDS011;51375;44.836;38.672;2023-12-20T04:10:07;5.65;;;2.60;;
64881;SDS011;51375;44.836;38.672;2023-12-20T04:12:33;3.47;;;2.63;;
64881;SDS011;51375;44.836;38.672;2023-12-20T04:14:59;5.65;;;2.47;;
64881;SDS011;51375;44.836;38.672;2023-12-20T04:17:25;4.75;;;2.92;;
64881;SDS011;51375;44.836;38.672;2023-12-20T04:19:51;5.05;;;3.03;;
64881;SDS011;51375;44.836;38.672;2023-12-20T04:22:18;6.65;;;2.95;;
64881;SDS011;51375;44.836;38.672;2023-12-20T04:24:45;3.90;;;2.70;;
64881;SDS011;51375;44.836;38.672;2023-12-20T04:27:11;8.20;;;2.80;;
64881;SDS011;51375;44.836;38.672;2023-12-20T04:29:37;7.40;;;2.85;;
64881;SDS011;51375;44.836;38.672;2023-12-20T04:32:03;6.40;;;2.70;;
64881;SDS011;51375;44.836;38.672;2023-12-20T04:34:30;4.93;;;2.55;;
64881;SDS011;51375;44.836;38.672;2023-12-20T04:36:56;5.97;;;2.80;;
64881;SDS011;51375;44.836;38.672;2023-12-20T04:39:22;7.70;;;3.22;;
64881;SDS011;51375;44.836;38.672;2023-12-20T04:41:47;9.50;;;4.07;;
64881;SDS011;51375;44.836;38.672;2023-12-20T04:44:14;7.10;;;3.33;;
64881;SDS011;51375;44.836;38.672;2023-12-20T04:46:40;11.05;;;3.63;;
64881;SDS011;51375;44.836;38.672;2023-12-20T04:49:06;9.73;;;4.07;;
64881;SDS011;51375;44.836;38.672;2023-12-20T04:51:35;7.95;;;3.85;;
64881;SDS011;51375;44.836;38.672;2023-12-20T04:54:01;11.77;;;4.13;;
64881;SDS011;51375;44.836;38.672;2023-12-20T04:56:27;6.30;;;3.80;;
64881;SDS011;51375;44.836;38.672;2023-12-20T04:58:53;11.43;;;4.95;;
64881;SDS011;51375;44.836;38.672;2023-12-20T05:01:19;9.63;;;4.50;;
64881;SDS011;51375;44.836;38.672;2023-12-20T05:03:46;8.65;;;4.40;;
64881;SDS011;51375;44.836;38.672;2023-12-20T05:06:12;9.95;;;4.20;;
64881;SDS011;51375;44.836;38.672;2023-12-20T05:08:38;17.85;;;4.68;;
64881;SDS011;51375;44.836;38.672;2023-12-20T05:11:04;6.43;;;4.38;;
64881;SDS011;51375;44.836;38.672;2023-12-20T05:13:30;8.32;;;4.72;;
64881;SDS011;51375;44.836;38.672;2023-12-20T05:15:56;10.77;;;4.97;;
64881;SDS011;51375;44.836;38.672;2023-12-20T05:18:22;8.10;;;5.38;;
64881;SDS011;51375;44.836;38.672;2023-12-20T05:20:49;8.40;;;4.80;;
64881;SDS011;51375;44.836;38.672;2023-12-20T05:23:15;10.43;;;4.75;;
64881;SDS011;51375;44.836;38.672;2023-12-20T05:25:42;11.15;;;4.80;;
64881;SDS011;51375;44.836;38.672;2023-12-20T05:28:08;9.45;;;5.45;;
64881;SDS011;51375;44.836;38.672;2023-12-20T05:30:34;9.07;;;4.85;;
64881;SDS011;51375;44.836;38.672;2023-12-20T05:33:00;9.98;;;5.07;;
64881;SDS011;51375;44.836;38.672;2023-12-20T05:35:26;12.05;;;4.45;;
64881;SDS011;51375;44.836;38.672;2023-12-20T05:37:52;6.72;;;4.57;;
64881;SDS011;51375;44.836;38.672;2023-12-20T05:40:18;9.38;;;4.70;;
64881;SDS011;51375;44.836;38.672;2023-12-20T05:42:44;7.88;;;4.47;;
64881;SDS011;51375;44.836;38.672;2023-12-20T05:45:10;5.97;;;4.45;;
64881;SDS011;51375;44.836;38.672;2023-12-20T05:47:36;10.20;;;5.10;;
64881;SDS011;51375;44.836;38.672;2023-12-20T05:50:02;11.93;;;5.82;;
64881;SDS011;51375;44.836;38.672;2023-12-20T05:52:29;16.42;;;7.90;;
64881;SDS011;51375;44.836;38.672;2023-12-20T05:54:55;14.45;;;8.25;;
64881;SDS011;51375;44.836;38.672;2023-12-20T05:57:23;15.75;;;7.30;;
64881;SDS011;51375;44.836;38.672;2023-12-20T05:59:49;10.60;;;6.57;;
64881;SDS011;51375;44.836;38.672;2023-12-20T06:02:15;9.73;;;5.60;;
64881;SDS011;51375;44.836;38.672;2023-12-20T06:04:44;10.77;;;5.45;;
64881;SDS011;51375;44.836;38.672;2023-12-20T06:07:13;7.15;;;5.55;;
64881;SDS011;51375;44.836;38.672;2023-12-20T06:09:40;11.38;;;6.07;;
64881;SDS011;51375;44.836;38.672;2023-12-20T06:12:07;8.85;;;6.07;;
64881;SDS011;51375;44.836;38.672;2023-12-20T06:14:36;10.05;;;6.30;;
64881;SDS011;51375;44.836;38.672;2023-12-20T06:17:02;11.25;;;5.72;;
64881;SDS011;51375;44.836;38.672;2023-12-20T06:19:28;9.13;;;5.75;;
64881;SDS011;51375;44.836;38.672;2023-12-20T06:21:54;12.10;;;6.03;;
64881;SDS011;51375;44.836;38.672;2023-12-20T06:24:20;8.85;;;5.93;;
64881;SDS011;51375;44.836;38.672;2023-12-20T06:26:46;10.20;;;6.47;;
64881;SDS011;51375;44.836;38.672;2023-12-20T06:29:12;8.80;;;5.95;;
64881;SDS011;51375;44.836;38.672;2023-12-20T06:31:38;14.15;;;6.88;;
64881;SDS011;51375;44.836;38.672;2023-12-20T06:34:04;6.70;;;3.10;;
64881;SDS011;51375;44.836;38.672;2023-12-20T06:36:30;3.03;;;2.30;;
64881;SDS011;51375;44.836;38.672;2023-12-20T06:38:56;7.18;;;4.75;;
64881;SDS011;51375;44.836;38.672;2023-12-20T06:41:22;5.35;;;3.45;;
64881;SDS011;51375;44.836;38.672;2023-12-20T06:43:50;1.70;;;1.35;;
64881;SDS011;51375;44.836;38.672;2023-12-20T06:46:17;3.13;;;1.70;;
64881;SDS011;51375;44.836;38.672;2023-12-20T06:48:43;1.60;;;1.10;;
64881;SDS011;51375;44.836;38.672;2023-12-20T06:51:12;2.70;;;1.83;;
64881;SDS011;51375;44.836;38.672;2023-12-20T06:53:39;1.63;;;1.00;;
64881;SDS011;51375;44.836;38.672;2023-12-20T06:56:06;1.10;;;0.90;;
64881;SDS011;51375;44.836;38.672;2023-12-20T06:58:32;2.05;;;1.13;;
64881;SDS011;51375;44.836;38.672;2023-12-20T07:00:58;0.82;;;0.82;;
64881;SDS011;51375;44.836;38.672;2023-12-20T07:03:24;1.10;;;0.70;;
64881;SDS011;51375;44.836;38.672;2023-12-20T07:05:50;1.02;;;0.93;;
64881;SDS011;51375;44.836;38.672;2023-12-20T07:08:16;0.88;;;0.80;;
64881;SDS011;51375;44.836;38.672;2023-12-20T07:10:42;1.73;;;1.00;;
64881;SDS011;51375;44.836;38.672;2023-12-20T07:13:08;1.88;;;1.00;;
64881;SDS011;51375;44.836;38.672;2023-12-20T07:15:34;1.25;;;0.95;;
64881;SDS011;51375;44.836;38.672;2023-12-20T07:18:02;1.95;;;0.90;;
64881;SDS011;51375;44.836;38.672;2023-12-20T07:20:28;1.60;;;0.70;;
64881;SDS011;51375;44.836;38.672;2023-12-20T07:22:54;3.67;;;0.90;;
64881;SDS011;51375;44.836;38.672;2023-12-20T07:25:20;1.33;;;0.93;;
64881;SDS011;51375;44.836;38.672;2023-12-20T07:27:46;1.73;;;1.00;;
64881;SDS011;51375;44.836;38.672;2023-12-20T07:30:12;4.50;;;1.00;;
64881;SDS011;51375;44.836;38.672;2023-12-20T07:32:38;1.10;;;0.80;;
64881;SDS011;51375;44.836;38.672;2023-12-20T07:35:04;0.90;;;0.70;;
64881;SDS011;51375;44.836;38.672;2023-12-20T07:37:30;1.05;;;0.90;;
64881;SDS011;51375;44.836;38.672;2023-12-20T07:39:56;7.00;;;1.10;;
64881;SDS011;51375;44.836;38.672;2023-12-20T07:42:22;1.48;;;0.90;;
64881;SDS011;51375;44.836;38.672;2023-12-20T07:44:49;1.45;;;0.80;;
64881;SDS011;51375;44.836;38.672;2023-12-20T07:47:15;0.82;;;0.80;;
64881;SDS011;51375;44.836;38.672;2023-12-20T07:49:44;1.35;;;0.70;;
64881;SDS011;51375;44.836;38.672;2023-12-20T07:52:10;1.58;;;0.68;;
64881;SDS011;51375;44.836;38.672;2023-12-20T07:54:36;2.65;;;1.00;;
64881;SDS011;51375;44.836;38.672;2023-12-20T07:57:02;2.35;;;0.80;;
64881;SDS011;51375;44.836;38.672;2023-12-20T07:59:28;19.20;;;6.88;;
64881;SDS011;51375;44.836;38.672;2023-12-20T08:01:54;10.75;;;4.95;;
64881;SDS011;51375;44.836;38.672;2023-12-20T08:04:20;4.70;;;2.45;;
64881;SDS011;51375;44.836;38.672;2023-12-20T08:06:46;1.13;;;1.02;;
64881;SDS011;51375;44.836;38.672;2023-12-20T08:09:12;16.65;;;8.95;;
64881;SDS011;51375;44.836;38.672;2023-12-20T08:11:38;6.47;;;4.10;;
64881;SDS011;51375;44.836;38.672;2023-12-20T08:14:04;2.70;;;2.00;;
64881;SDS011;51375;44.836;38.672;2023-12-20T08:16:30;1.98;;;1.73;;
64881;SDS011;51375;44.836;38.672;2023-12-20T08:18:56;2.47;;;2.00;;
64881;SDS011;51375;44.836;38.672;2023-12-20T08:21:22;3.63;;;1.65;;
64881;SDS011;51375;44.836;38.672;2023-12-20T08:23:48;2.58;;;1.27;;
64881;SDS011;51375;44.836;38.672;2023-12-20T08:26:14;1.90;;;0.80;;
64881;SDS011;51375;44.836;38.672;2023-12-20T08:28:46;1.10;;;0.95;;
64881;SDS011;51375;44.836;38.672;2023-12-20T08:31:15;1.25;;;0.95;;
64881;SDS011;51375;44.836;38.672;2023-12-20T08:33:45;2.15;;;0.82;;
64881;SDS011;51375;44.836;38.672;2023-12-20T08:36:12;1.67;;;1.10;;
64881;SDS011;51375;44.836;38.672;2023-12-20T08:38:38;0.70;;;0.70;;
64881;SDS011;51375;44.836;38.672;2023-12-20T08:41:05;1.52;;;1.05;;
64881;SDS011;51375;44.836;38.672;2023-12-20T08:43:32;1.40;;;0.77;;
64881;SDS011;51375;44.836;38.672;2023-12-20T08:45:59;1.95;;;0.80;;
64881;SDS011;51375;44.836;38.672;2023-12-20T08:48:25;1.50;;;0.90;;
64881;SDS011;51375;44.836;38.672;2023-12-20T08:50:51;0.60;;;0.60;;
64881;SDS011;51375;44.836;38.672;2023-12-20T08:53:18;1.25;;;1.00;;
64881;SDS011;51375;44.836;38.672;2023-12-20T08:55:44;5.35;;;0.82;;
64881;SDS011;51375;44.836;38.672;2023-12-20T08:58:11;3.83;;;0.77;;
64881;SDS011;51375;44.836;38.672;2023-12-20T09:00:37;1.40;;;0.70;;
64881;SDS011;51375;44.836;38.672;2023-12-20T09:03:04;1.50;;;0.80;;
64881;SDS011;51375;44.836;38.672;2023-12-20T09:05:30;1.42;;;0.60;;
64881;SDS011;51375;44.836;38.672;2023-12-20T09:07:56;2.40;;;0.80;;
64881;SDS011;51375;44.836;38.672;2023-12-20T09:10:22;1.20;;;0.77;;
64881;SDS011;51375;44.836;38.672;2023-12-20T09:12:49;1.13;;;0.70;;
64881;SDS011;51375;44.836;38.672;2023-12-20T09:15:15;3.67;;;0.70;;
64881;SDS011;51375;44.836;38.672;2023-12-20T09:17:41;0.70;;;0.68;;
64881;SDS011;51375;44.836;38.672;2023-12-20T09:20:07;0.60;;;0.60;;
64881;SDS011;51375;44.836;38.672;2023-12-20T09:22:33;0.70;;;0.70;;
64881;SDS011;51375;44.836;38.672;2023-12-20T09:24:59;0.85;;;0.80;;
64881;SDS011;51375;44.836;38.672;2023-12-20T09:27:27;1.30;;;0.90;;
64881;SDS011;51375;44.836;38.672;2023-12-20T09:29:53;2.95;;;0.77;;
64881;SDS011;51375;44.836;38.672;2023-12-20T09:32:19;0.93;;;0.73;;
64881;SDS011;51375;44.836;38.672;2023-12-20T09:34:48;0.90;;;0.80;;
64881;SDS011;51375;44.836;38.672;2023-12-20T09:37:14;1.67;;;0.80;;
64881;SDS011;51375;44.836;38.672;2023-12-20T09:39:39;3.10;;;0.93;;
64881;SDS011;51375;44.836;38.672;2023-12-20T09:42:06;2.75;;;0.57;;
64881;SDS011;51375;44.836;38.672;2023-12-20T09:44:33;1.48;;;0.65;;
64881;SDS011;51375;44.836;38.672;2023-12-20T09:47:01;2.22;;;0.73;;
64881;SDS011;51375;44.836;38.672;2023-12-20T09:49:28;1.50;;;0.80;;
64881;SDS011;51375;44.836;38.672;2023-12-20T09:51:56;1.02;;;0.68;;
64881;SDS011;51375;44.836;38.672;2023-12-20T09:54:22;3.05;;;0.70;;
64881;SDS011;51375;44.836;38.672;2023-12-20T09:56:49;0.70;;;0.70;;
64881;SDS011;51375;44.836;38.672;2023-12-20T09:59:15;3.47;;;0.75;;
64881;SDS011;51375;44.836;38.672;2023-12-20T10:01:41;0.63;;;0.60;;
64881;SDS011;51375;44.836;38.672;2023-12-20T10:04:08;1.38;;;0.70;;
64881;SDS011;51375;44.836;38.672;2023-12-20T10:06:40;0.50;;;0.50;;
64881;SDS011;51375;44.836;38.672;2023-12-20T10:09:08;1.15;;;0.70;;
64881;SDS011;51375;44.836;38.672;2023-12-20T10:11:36;0.98;;;0.63;;
64881;SDS011;51375;44.836;38.672;2023-12-20T10:14:03;0.60;;;0.60;;
64881;SDS011;51375;44.836;38.672;2023-12-20T10:16:30;1.33;;;0.70;;
64881;SDS011;51375;44.836;38.672;2023-12-20T10:18:57;1.13;;;0.80;;
64881;SDS011;51375;44.836;38.672;2023-12-20T10:21:24;1.25;;;0.70;;
64881;SDS011;51375;44.836;38.672;2023-12-20T10:23:54;3.72;;;0.80;;
64881;SDS011;51375;44.836;38.672;2023-12-20T10:26:21;1.20;;;0.57;;
64881;SDS011;51375;44.836;38.672;2023-12-20T10:28:55;3.90;;;0.80;;
64881;SDS011;51375;44.836;38.672;2023-12-20T10:31:31;4.65;;;0.90;;
64881;SDS011;51375;44.836;38.672;2023-12-20T10:33:59;2.38;;;0.70;;
64881;SDS011;51375;44.836;38.672;2023-12-20T10:36:26;1.08;;;0.70;;
64881;SDS011;51375;44.836;38.672;2023-12-20T10:38:54;1.90;;;0.80;;
64881;SDS011;51375;44.836;38.672;2023-12-20T10:41:27;4.25;;;1.40;;
64881;SDS011;51375;44.836;38.672;2023-12-20T10:44:01;2.33;;;1.45;;
64881;SDS011;51375;44.836;38.672;2023-12-20T10:46:28;4.68;;;2.88;;
64881;SDS011;51375;44.836;38.672;2023-12-20T10:48:56;4.35;;;1.45;;
64881;SDS011;51375;44.836;38.672;2023-12-20T10:51:23;1.60;;;1.20;;
64881;SDS011;51375;44.836;38.672;2023-12-20T10:53:54;1.38;;;0.65;;
64881;SDS011;51375;44.836;38.672;2023-12-20T10:56:21;4.85;;;1.85;;
64881;SDS011;51375;44.836;38.672;2023-12-20T10:58:50;1.95;;;1.42;;
64881;SDS011;51375;44.836;38.672;2023-12-20T11:01:17;4.95;;;1.10;;
64881;SDS011;51375;44.836;38.672;2023-12-20T11:03:45;1.63;;;0.75;;
64881;SDS011;51375;44.836;38.672;2023-12-20T11:08:47;0.70;;;0.60;;
64881;SDS011;51375;44.836;38.672;2023-12-20T11:16:36;3.15;;;1.00;;
64881;SDS011;51375;44.836;38.672;2023-12-20T11:19:06;1.08;;;0.70;;
64881;SDS011;51375;44.836;38.672;2023-12-20T11:21:32;1.85;;;0.65;;
64881;SDS011;51375;44.836;38.672;2023-12-20T11:24:01;0.75;;;0.60;;
64881;SDS011;51375;44.836;38.672;2023-12-20T11:26:29;0.52;;;0.52;;
64881;SDS011;51375;44.836;38.672;2023-12-20T11:29:29;1.75;;;0.77;;
64881;SDS011;51375;44.836;38.672;2023-12-20T11:31:59;0.90;;;0.50;;
64881;SDS011;51375;44.836;38.672;2023-12-20T11:34:27;1.60;;;0.70;;
64881;SDS011;51375;44.836;38.672;2023-12-20T11:36:57;3.53;;;0.88;;
64881;SDS011;51375;44.836;38.672;2023-12-20T11:39:26;4.40;;;0.90;;
64881;SDS011;51375;44.836;38.672;2023-12-20T11:41:54;0.60;;;0.57;;
64881;SDS011;51375;44.836;38.672;2023-12-20T11:44:22;0.80;;;0.80;;
64881;SDS011;51375;44.836;38.672;2023-12-20T11:46:48;1.25;;;0.68;;
64881;SDS011;51375;44.836;38.672;2023-12-20T11:49:14;4.00;;;0.70;;
64881;SDS011;51375;44.836;38.672;2023-12-20T11:51:40;10.90;;;0.82;;
64881;SDS011;51375;44.836;38.672;2023-12-20T11:54:07;1.73;;;0.57;;
64881;SDS011;51375;44.836;38.672;2023-12-20T11:56:35;1.70;;;0.77;;
64881;SDS011;51375;44.836;38.672;2023-12-20T11:59:02;3.90;;;0.80;;
64881;SDS011;51375;44.836;38.672;2023-12-20T12:01:28;1.33;;;0.70;;
64881;SDS011;51375;44.836;38.672;2023-12-20T12:04:03;2.55;;;0.80;;
64881;SDS011;51375;44.836;38.672;2023-12-20T12:06:32;0.77;;;0.65;;
64881;SDS011;51375;44.836;38.672;2023-12-20T12:08:59;1.00;;;0.63;;
64881;SDS011;51375;44.836;38.672;2023-12-20T12:11:25;1.83;;;0.60;;
64881;SDS011;51375;44.836;38.672;2023-12-20T12:13:51;0.65;;;0.60;;
64881;SDS011;51375;44.836;38.672;2023-12-20T12:16:17;1.27;;;0.70;;
64881;SDS011;51375;44.836;38.672;2023-12-20T12:18:45;1.48;;;0.80;;
64881;SDS011;51375;44.836;38.672;2023-12-20T12:21:18;1.55;;;0.70;;
64881;SDS011;51375;44.836;38.672;2023-12-20T12:23:45;0.52;;;0.52;;
64881;SDS011;51375;44.836;38.672;2023-12-20T12:26:11;0.55;;;0.50;;
64881;SDS011;51375;44.836;38.672;2023-12-20T12:28:39;4.20;;;0.80;;
64881;SDS011;51375;44.836;38.672;2023-12-20T12:31:13;0.60;;;0.60;;
64881;SDS011;51375;44.836;38.672;2023-12-20T12:33:43;0.85;;;0.73;;
64881;SDS011;51375;44.836;38.672;2023-12-20T12:36:10;2.25;;;0.80;;
64881;SDS011;51375;44.836;38.672;2023-12-20T12:38:36;0.60;;;0.60;;
64881;SDS011;51375;44.836;38.672;2023-12-20T12:41:03;0.70;;;0.50;;
64881;SDS011;51375;44.836;38.672;2023-12-20T12:43:30;1.38;;;0.60;;
64881;SDS011;51375;44.836;38.672;2023-12-20T12:45:56;1.45;;;0.70;;
64881;SDS011;51375;44.836;38.672;2023-12-20T12:48:22;2.40;;;1.00;;
64881;SDS011;51375;44.836;38.672;2023-12-20T12:50:49;1.17;;;0.60;;
64881;SDS011;51375;44.836;38.672;2023-12-20T12:53:17;4.10;;;2.85;;
64881;SDS011;51375;44.836;38.672;2023-12-20T12:55:43;9.20;;;5.38;;
64881;SDS011;51375;44.836;38.672;2023-12-20T12:58:10;10.63;;;5.35;;
64881;SDS011;51375;44.836;38.672;2023-12-20T13:00:36;8.88;;;5.35;;
64881;SDS011;51375;44.836;38.672;2023-12-20T13:03:02;5.97;;;2.47;;
64881;SDS011;51375;44.836;38.672;2023-12-20T13:05:29;9.38;;;4.35;;
64881;SDS011;51375;44.836;38.672;2023-12-20T13:07:55;10.63;;;3.58;;
64881;SDS011;51375;44.836;38.672;2023-12-20T13:10:21;1.25;;;0.80;;
64881;SDS011;51375;44.836;38.672;2023-12-20T13:12:47;3.72;;;0.82;;
64881;SDS011;51375;44.836;38.672;2023-12-20T13:15:13;0.63;;;0.63;;
64881;SDS011;51375;44.836;38.672;2023-12-20T13:17:39;0.70;;;0.60;;
64881;SDS011;51375;44.836;38.672;2023-12-20T13:20:05;3.50;;;2.50;;
64881;SDS011;51375;44.836;38.672;2023-12-20T13:22:31;2.38;;;1.17;;
64881;SDS011;51375;44.836;38.672;2023-12-20T13:24:57;1.10;;;0.80;;
64881;SDS011;51375;44.836;38.672;2023-12-20T13:27:23;2.40;;;0.90;;
64881;SDS011;51375;44.836;38.672;2023-12-20T13:29:49;1.30;;;1.10;;
64881;SDS011;51375;44.836;38.672;2023-12-20T13:32:15;5.72;;;2.22;;
64881;SDS011;51375;44.836;38.672;2023-12-20T13:34:41;3.35;;;1.38;;
64881;SDS011;51375;44.836;38.672;2023-12-20T13:37:07;4.35;;;1.30;;
64881;SDS011;51375;44.836;38.672;2023-12-20T13:39:33;6.28;;;0.75;;
64881;SDS011;51375;44.836;38.672;2023-12-20T13:42:00;0.75;;;0.70;;
64881;SDS011;51375;44.836;38.672;2023-12-20T13:44:27;3.85;;;0.60;;
64881;SDS011;51375;44.836;38.672;2023-12-20T13:46:55;1.02;;;0.80;;
64881;SDS011;51375;44.836;38.672;2023-12-20T13:49:26;4.18;;;1.98;;
64881;SDS011;51375;44.836;38.672;2023-12-20T13:51:53;13.63;;;4.78;;
64881;SDS011;51375;44.836;38.672;2023-12-20T13:54:21;16.73;;;7.20;;
64881;SDS011;51375;44.836;38.672;2023-12-20T13:56:48;16.85;;;8.20;;
64881;SDS011;51375;44.836;38.672;2023-12-20T13:59:16;18.98;;;8.88;;
64881;SDS011;51375;44.836;38.672;2023-12-20T14:01:43;18.02;;;11.10;;
64881;SDS011;51375;44.836;38.672;2023-12-20T14:04:11;5.95;;;3.17;;
64881;SDS011;51375;44.836;38.672;2023-12-20T14:06:38;4.03;;;1.40;;
64881;SDS011;51375;44.836;38.672;2023-12-20T14:09:07;1.40;;;0.80;;
64881;SDS011;51375;44.836;38.672;2023-12-20T14:11:34;2.05;;;0.98;;
64881;SDS011;51375;44.836;38.672;2023-12-20T14:14:07;6.65;;;1.35;;
64881;SDS011;51375;44.836;38.672;2023-12-20T14:16:33;6.20;;;2.28;;
64881;SDS011;51375;44.836;38.672;2023-12-20T14:19:01;5.53;;;1.58;;
64881;SDS011;51375;44.836;38.672;2023-12-20T14:21:34;10.02;;;3.00;;
64881;SDS011;51375;44.836;38.672;2023-12-20T14:24:00;13.23;;;4.18;;
64881;SDS011;51375;44.836;38.672;2023-12-20T14:26:26;7.68;;;3.50;;
64881;SDS011;51375;44.836;38.672;2023-12-20T14:28:53;13.30;;;3.83;;
64881;SDS011;51375;44.836;38.672;2023-12-20T14:31:19;4.75;;;2.40;;
64881;SDS011;51375;44.836;38.672;2023-12-20T14:33:47;3.63;;;1.05;;
64881;SDS011;51375;44.836;38.672;2023-12-20T14:36:14;2.55;;;0.88;;
64881;SDS011;51375;44.836;38.672;2023-12-20T14:38:43;0.98;;;0.75;;